Observation data for McLean on 08/25/2019      Previous  Date  Next       Current Mesonet Observations  Soil Data  Daily Summary Page  Observations in Plain Language
KMCS 250500Z 14008KT 23/19 A2994 RMK A01 T02320192  RH  083%=      5-min Rain = 0
KMCS 250505Z 14009KT 23/19 A2994 RMK A01 T02310192  RH  083%=      5-min Rain = 0
KMCS 250510Z 14010KT 23/19 A2994 RMK A01 T02310192  RH  083%=      5-min Rain = 0
KMCS 250515Z 14010KT 23/19 A2994 RMK A01 T02310192  RH  083%=      5-min Rain = 0
KMCS 250520Z 14010KT 23/19 A2994 RMK A01 T02310192  RH  083%=      5-min Rain = 0
KMCS 250525Z 14011KT 23/19 A2994 RMK A01 T02310192  RH  083%=      5-min Rain = 0
KMCS 250530Z 15011KT 23/19 A2994 RMK A01 T02320192  RH  082%=      5-min Rain = 0
KMCS 250535Z 15010KT 23/19 A2994 RMK A01 T02330192  RH  082%=      5-min Rain = 0
KMCS 250540Z 15011G17KT 23/19 A2994 RMK A01 T02340191  RH  081%=      5-min Rain = 0
KMCS 250545Z 15012KT 23/19 A2994 RMK A01 T02340191  RH  081%=      5-min Rain = 0
KMCS 250550Z 15012KT 23/19 A2994 RMK A01 T02340191  RH  081%=      5-min Rain = 0
KMCS 250555Z 15011G16KT 23/19 A2994 RMK A01 T02340191  RH  081%=      5-min Rain = 0
KMCS 250600Z 15012G17KT 23/19 A2993 RMK A01 T02340191  RH  081%=      5-min Rain = 0
KMCS 250605Z 15012G17KT 23/19 A2993 RMK A01 T02330191  RH  082%=      5-min Rain = 0
KMCS 250610Z 15012KT 23/19 A2993 RMK A01 T02330191  RH  082%=      5-min Rain = 0
KMCS 250615Z 15011G16KT 23/19 A2993 RMK A01 T02320191  RH  082%=      5-min Rain = 0
KMCS 250620Z 15010KT 23/19 A2993 RMK A01 T02310192  RH  083%=      5-min Rain = 0
KMCS 250625Z 15010G15KT 23/19 A2993 RMK A01 T02310192  RH  083%=      5-min Rain = 0
KMCS 250630Z 15011KT 23/19 A2993 RMK A01 T02300192  RH  084%=      5-min Rain = 0
KMCS 250635Z 15011KT 23/19 A2993 RMK A01 T02290192  RH  084%=      5-min Rain = 0
KMCS 250640Z 15010KT 23/19 A2993 RMK A01 T02290192  RH  084%=      5-min Rain = 0
KMCS 250645Z 15011KT 23/19 A2993 RMK A01 T02290193  RH  085%=      5-min Rain = 0
KMCS 250650Z 15012KT 23/19 A2992 RMK A01 T02280192  RH  085%=      5-min Rain = 0
KMCS 250655Z 15009G14KT 23/19 A2992 RMK A01 T02270193  RH  086%=      5-min Rain = 0
KMCS 250700Z 15009G14KT 23/19 A2993 RMK A01 T02260193  RH  086%=      5-min Rain = 0
KMCS 250705Z 14009KT 23/19 A2993 RMK A01 T02270193  RH  086%=      5-min Rain = 0
KMCS 250710Z 14009KT 23/19 A2993 RMK A01 T02270193  RH  086%=      5-min Rain = 0
KMCS 250715Z 13008KT 23/19 A2993 RMK A01 T02260193  RH  087%=      5-min Rain = 0
KMCS 250720Z 12008KT 23/19 A2994 RMK A01 T02260193  RH  086%=      5-min Rain = 0
KMCS 250725Z 09008KT 23/19 A2995 RMK A01 T02260194  RH  087%=      5-min Rain = 0
KMCS 250730Z 09009KT 23/19 A2996 RMK A01 T02250194  RH  087%=      5-min Rain = 0
KMCS 250735Z 09010KT 23/19 A2996 RMK A01 T02250194  RH  087%=      5-min Rain = 0
KMCS 250740Z 09009KT 23/19 A2996 RMK A01 T02250194  RH  087%=      5-min Rain = 0
KMCS 250745Z 11010KT 23/19 A2995 RMK A01 T02250194  RH  088%=      5-min Rain = 0
KMCS 250750Z 12012G17KT 23/20 A2993 RMK A01 T02250195  RH  088%=      5-min Rain = 0
KMCS 250755Z 13013G18KT 23/20 A2992 RMK A01 T02260195  RH  087%=      5-min Rain = 0
KMCS 250800Z 14014G19KT 23/19 A2992 RMK A01 T02270194  RH  086%=      5-min Rain = 0
KMCS 250805Z 15013G19KT 23/19 A2992 RMK A01 T02300193  RH  084%=      5-min Rain = 0
KMCS 250810Z 15013G19KT 23/19 A2991 RMK A01 T02320193  RH  084%=      5-min Rain = 0
KMCS 250815Z 15013G18KT 23/19 A2991 RMK A01 T02300193  RH  084%=      5-min Rain = 0
KMCS 250820Z 15012G19KT 23/19 A2991 RMK A01 T02290194  RH  085%=      5-min Rain = 0
KMCS 250825Z 15011G16KT 23/19 A2991 RMK A01 T02290194  RH  085%=      5-min Rain = 0
KMCS 250830Z 15011G16KT 23/19 A2991 RMK A01 T02290194  RH  085%=      5-min Rain = 0
KMCS 250835Z 15011G16KT 23/19 A2991 RMK A01 T02280194  RH  086%=      5-min Rain = 0
KMCS 250840Z 15010KT 23/19 A2991 RMK A01 T02270194  RH  086%=      5-min Rain = 0
KMCS 250845Z 15010KT 23/19 A299 RMK A01 T02260194  RH  087%=      5-min Rain = 0
KMCS 250850Z 15010G16KT 23/19 A299 RMK A01 T02260194  RH  087%=      5-min Rain = 0
KMCS 250855Z 15011KT 23/19 A299 RMK A01 T02270193  RH  086%=      5-min Rain = 0
KMCS 250900Z 15010KT 23/19 A299 RMK A01 T02270193  RH  086%=      5-min Rain = 0
KMCS 250905Z 15009G14KT 23/19 A299 RMK A01 T02270193  RH  086%=      5-min Rain = 0
KMCS 250910Z 15009G15KT 23/19 A299 RMK A01 T02270193  RH  086%=      5-min Rain = 0
KMCS 250915Z 15010KT 23/19 A299 RMK A01 T02270193  RH  086%=      5-min Rain = 0
KMCS 250920Z 16011KT 23/19 A299 RMK A01 T02270193  RH  086%=      5-min Rain = 0
KMCS 250925Z 17011G18KT 23/19 A299 RMK A01 T02270193  RH  086%=      5-min Rain = 0
KMCS 250930Z 17010G15KT 23/19 A299 RMK A01 T02280192  RH  085%=      5-min Rain = 0
KMCS 250935Z 16009KT 23/19 A299 RMK A01 T02280192  RH  084%=      5-min Rain = 0
KMCS 250940Z 15006KT 23/19 A2991 RMK A01 T02280192  RH  085%=      5-min Rain = 0
KMCS 250945Z 12006KT 23/19 A2991 RMK A01 T02270192  RH  085%=      5-min Rain = 0
KMCS 250950Z 10008KT 23/19 A2992 RMK A01 T02260192  RH  086%=      5-min Rain = 0
KMCS 250955Z 09009KT 23/19 A2993 RMK A01 T02250193  RH  087%=      5-min Rain = 0
KMCS 251000Z 09010G15KT 22/19 A2993 RMK A01 T02240193  RH  087%=      5-min Rain = 0
KMCS 251005Z 09010KT 22/19 A2993 RMK A01 T02230194  RH  089%=      5-min Rain = 0
KMCS 251010Z 10009KT 22/20 A2993 RMK A01 T02220195  RH  089%=      5-min Rain = 0
KMCS 251015Z 11008G14KT 22/20 A2993 RMK A01 T02210195  RH  090%=      5-min Rain = 0
KMCS 251020Z 11009KT 22/20 A2992 RMK A01 T02210195  RH  090%=      5-min Rain = 0
KMCS 251025Z 12009KT 22/19 A2992 RMK A01 T02230194  RH  089%=      5-min Rain = 0
KMCS 251030Z 11009KT 22/19 A2992 RMK A01 T02230194  RH  089%=      5-min Rain = 0
KMCS 251035Z 11009G14KT 22/20 A2992 RMK A01 T02220195  RH  089%=      5-min Rain = 0
KMCS 251040Z 11008KT 22/20 A2992 RMK A01 T02210195  RH  090%=      5-min Rain = 0
KMCS 251045Z 12008KT 22/20 A2991 RMK A01 T02200195  RH  091%=      5-min Rain = 0
KMCS 251050Z 13009KT 22/20 A2991 RMK A01 T02200196  RH  091%=      5-min Rain = 0
KMCS 251055Z 13008KT 22/20 A299 RMK A01 T02190196  RH  092%=      5-min Rain = 0
KMCS 251100Z 13009KT 22/20 A299 RMK A01 T02190195  RH  091%=      5-min Rain = 0
KMCS 251105Z 13009KT 22/19 A299 RMK A01 T02190194  RH  091%=      5-min Rain = 0
KMCS 251110Z 13009KT 22/19 A299 RMK A01 T02190194  RH  091%=      5-min Rain = 0
KMCS 251115Z 14009KT 22/19 A299 RMK A01 T02180194  RH  091%=      5-min Rain = 0
KMCS 251120Z 14008KT 22/19 A299 RMK A01 T02170194  RH  092%=      5-min Rain = 0
KMCS 251125Z 15008KT 22/19 A299 RMK A01 T02160194  RH  092%=      5-min Rain = 0
KMCS 251130Z 15009KT 22/19 A299 RMK A01 T02150194  RH  093%=      5-min Rain = 0
KMCS 251135Z 15008KT 22/19 A2989 RMK A01 T02150194  RH  093%=      5-min Rain = 0
KMCS 251140Z 15009KT 21/19 A2989 RMK A01 T02140194  RH  094%=      5-min Rain = 0
KMCS 251145Z 14008KT 21/19 A2989 RMK A01 T02130194  RH  094%=      5-min Rain = 0
KMCS 251150Z 14009KT 21/19 A2989 RMK A01 T02120193  RH  094%=      5-min Rain = 0
KMCS 251155Z 14010KT 21/19 A2989 RMK A01 T02130194  RH  094%=      5-min Rain = 0
KMCS 251200Z 14009KT 21/19 A2989 RMK A01 T02130194  RH  094%=      5-min Rain = 0
KMCS 251205Z 14010G15KT 21/19 A2989 RMK A01 T02120194  RH  094%=      5-min Rain = 0
KMCS 251210Z 15010KT 21/19 A2989 RMK A01 T02130194  RH  094%=      5-min Rain = 0
KMCS 251215Z 15009KT 21/19 A2989 RMK A01 T02120194  RH  094%=      5-min Rain = 0
KMCS 251220Z 15010KT 21/19 A2989 RMK A01 T02120194  RH  094%=      5-min Rain = 0
KMCS 251225Z 15010KT 21/19 A2989 RMK A01 T02120194  RH  095%=      5-min Rain = 0
KMCS 251230Z 15010KT 21/19 A2989 RMK A01 T02120194  RH  095%=      5-min Rain = 0
KMCS 251235Z 16010KT 21/19 A2989 RMK A01 T02120194  RH  095%=      5-min Rain = 0
KMCS 251240Z 15009KT 21/19 A299 RMK A01 T02120194  RH  094%=      5-min Rain = 0
KMCS 251245Z 15009G15KT 21/19 A299 RMK A01 T02120193  RH  094%=      5-min Rain = 0
KMCS 251250Z 16010KT 21/19 A299 RMK A01 T02120193  RH  094%=      5-min Rain = 0
KMCS 251255Z 16010KT 21/19 A299 RMK A01 T02120193  RH  094%=      5-min Rain = 0
KMCS 251300Z 16010KT 21/19 A299 RMK A01 T02120193  RH  094%=      5-min Rain = 0
KMCS 251305Z 16011KT 21/19 A299 RMK A01 T02130193  RH  094%=      5-min Rain = 0
KMCS 251310Z 16010KT 22/19 A299 RMK A01 T02150194  RH  093%=      5-min Rain = 0
KMCS 251315Z 15011KT 22/19 A299 RMK A01 T02170194  RH  092%=      5-min Rain = 0
KMCS 251320Z 15010G16KT 22/20 A299 RMK A01 T02180195  RH  091%=      5-min Rain = 0
KMCS 251325Z 15012KT 22/20 A299 RMK A01 T02190195  RH  091%=      5-min Rain = 0
KMCS 251330Z 15010G15KT 22/20 A299 RMK A01 T02220196  RH  090%=      5-min Rain = 0
KMCS 251335Z 15011KT 22/20 A2989 RMK A01 T02240196  RH  089%=      5-min Rain = 0
KMCS 251340Z 15013KT 22/20 A2989 RMK A01 T02240195  RH  088%=      5-min Rain = 0
KMCS 251345Z 15012KT 23/20 A2989 RMK A01 T02260196  RH  088%=      5-min Rain = 0
KMCS 251350Z 15012G18KT 23/20 A2989 RMK A01 T02280196  RH  087%=      5-min Rain = 0
KMCS 251355Z 16012KT 23/20 A2989 RMK A01 T02290196  RH  086%=      5-min Rain = 0
KMCS 251400Z 16013KT 23/20 A2989 RMK A01 T02300196  RH  086%=      5-min Rain = 0
KMCS 251405Z 16012KT 23/20 A2989 RMK A01 T02310196  RH  085%=      5-min Rain = 0
KMCS 251410Z 16014G19KT 23/20 A2989 RMK A01 T02320195  RH  084%=      5-min Rain = 0
KMCS 251415Z 16015KT 23/19 A2989 RMK A01 T02320194  RH  084%=      5-min Rain = 0
KMCS 251420Z 16013KT 23/20 A2989 RMK A01 T02340195  RH  084%=      5-min Rain = 0
KMCS 251425Z 17013KT 24/20 A2989 RMK A01 T02360196  RH  083%=      5-min Rain = 0
KMCS 251430Z 17013G18KT 24/20 A2989 RMK A01 T02390196  RH  081%=      5-min Rain = 0
KMCS 251435Z 16014KT 24/20 A2989 RMK A01 T02410195  RH  080%=      5-min Rain = 0
KMCS 251440Z 16012G17KT 24/20 A2989 RMK A01 T02430196  RH  079%=      5-min Rain = 0
KMCS 251445Z 17012G17KT 25/20 A2988 RMK A01 T02450197  RH  079%=      5-min Rain = 0
KMCS 251450Z 16013KT 25/20 A2988 RMK A01 T02470196  RH  078%=      5-min Rain = 0
KMCS 251455Z 17014G19KT 25/20 A2988 RMK A01 T02480195  RH  077%=      5-min Rain = 0
KMCS 251500Z 17012KT 25/20 A2988 RMK A01 T02500198  RH  077%=      5-min Rain = 0
KMCS 251505Z 18014G19KT 25/20 A2988 RMK A01 T02520198  RH  076%=      5-min Rain = 0
KMCS 251510Z 18012G17KT 25/20 A2988 RMK A01 T02540198  RH  076%=      5-min Rain = 0
KMCS 251515Z 18013KT 25/20 A2988 RMK A01 T02540197  RH  075%=      5-min Rain = 0
KMCS 251520Z 17012KT 26/20 A2989 RMK A01 T02560198  RH  075%=      5-min Rain = 0
KMCS 251525Z 16010KT 26/20 A2989 RMK A01 T02610201  RH  073%=      5-min Rain = 0
KMCS 251530Z 16012KT 26/20 A2989 RMK A01 T02630198  RH  072%=      5-min Rain = 0
KMCS 251535Z 16011G16KT 26/20 A2989 RMK A01 T02640197  RH  071%=      5-min Rain = 0
KMCS 251540Z 17010KT 27/20 A2989 RMK A01 T02670198  RH  070%=      5-min Rain = 0
KMCS 251545Z 16009G14KT 27/20 A299 RMK A01 T02680198  RH  069%=      5-min Rain = 0
KMCS 251550Z 15010KT 27/20 A299 RMK A01 T02710197  RH  068%=      5-min Rain = 0
KMCS 251555Z 13011KT 27/20 A299 RMK A01 T02700196  RH  068%=      5-min Rain = 0
KMCS 251600Z 15010KT 27/20 A299 RMK A01 T02710197  RH  068%=      5-min Rain = 0
KMCS 251605Z 14009G14KT 27/20 A2991 RMK A01 T02730200  RH  069%=      5-min Rain = 0
KMCS 251610Z 13010KT 27/20 A2991 RMK A01 T02710199  RH  069%=      5-min Rain = 0
KMCS 251615Z 12009KT 27/20 A2991 RMK A01 T02730202  RH  069%=      5-min Rain = 0
KMCS 251620Z 13011G17KT 27/20 A299 RMK A01 T02700202  RH  070%=      5-min Rain = 0
KMCS 251625Z 13011G16KT 27/20 A299 RMK A01 T02700201  RH  070%=      5-min Rain = 0
KMCS 251630Z 14010KT 27/21 A299 RMK A01 T02740205  RH  070%=      5-min Rain = 0
KMCS 251635Z 14011G16KT 28/20 A299 RMK A01 T02750202  RH  068%=      5-min Rain = 0
KMCS 251640Z 12011KT 27/20 A299 RMK A01 T02730203  RH  070%=      5-min Rain = 0
KMCS 251645Z 13008KT 27/21 A2991 RMK A01 T02740205  RH  070%=      5-min Rain = 0
KMCS 251650Z 14009KT 27/20 A2991 RMK A01 T02740204  RH  070%=      5-min Rain = 0
KMCS 251655Z 11009KT 27/21 A2991 RMK A01 T02740206  RH  071%=      5-min Rain = 0
KMCS 251700Z 11011KT 28/21 A2991 RMK A01 T02750206  RH  070%=      5-min Rain = 0
KMCS 251705Z 12009G15KT 28/21 A299 RMK A01 T02760208  RH  071%=      5-min Rain = 0
KMCS 251710Z 11010G15KT 27/21 A299 RMK A01 T02740207  RH  071%=      5-min Rain = 0
KMCS 251715Z 12010KT 28/21 A299 RMK A01 T02760207  RH  070%=      5-min Rain = 0
KMCS 251720Z 13010G16KT 28/21 A299 RMK A01 T02760207  RH  070%=      5-min Rain = 0
KMCS 251725Z 12009KT 27/21 A2989 RMK A01 T02720207  RH  072%=      5-min Rain = 0
KMCS 251730Z 12011KT 28/21 A2989 RMK A01 T02750211  RH  072%=      5-min Rain = 0
KMCS 251735Z 13011KT 28/21 A2989 RMK A01 T02750211  RH  072%=      5-min Rain = 0
KMCS 251740Z 11010G15KT 27/21 A2989 RMK A01 T02730212  RH  074%=      5-min Rain = 0
KMCS 251745Z 12012G17KT 28/21 A2989 RMK A01 T02770212  RH  072%=      5-min Rain = 0
KMCS 251750Z 12012KT 27/21 A2989 RMK A01 T02730210  RH  073%=      5-min Rain = 0
KMCS 251755Z 12010G17KT 27/21 A2989 RMK A01 T02740210  RH  072%=      5-min Rain = 0
KMCS 251800Z 15011G16KT 28/21 A2989 RMK A01 T02770210  RH  071%=      5-min Rain = 0
KMCS 251805Z 13009G14KT 28/21 A2988 RMK A01 T02750210  RH  072%=      5-min Rain = 0
KMCS 251810Z 14012KT 29/21 A2988 RMK A01 T02850212  RH  069%=      5-min Rain = 0
KMCS 251815Z 14010KT 28/21 A2988 RMK A01 T02840211  RH  068%=      5-min Rain = 0
KMCS 251820Z 14011G16KT 28/21 A2988 RMK A01 T02830209  RH  068%=      5-min Rain = 0
KMCS 251825Z 13011G18KT 28/21 A2988 RMK A01 T02830209  RH  068%=      5-min Rain = 0
KMCS 251830Z 12012KT 29/21 A2987 RMK A01 T02850209  RH  067%=      5-min Rain = 0
KMCS 251835Z 13012G18KT 29/21 A2987 RMK A01 T02850208  RH  067%=      5-min Rain = 0
KMCS 251840Z 13012G17KT 29/21 A2987 RMK A01 T02860208  RH  067%=      5-min Rain = 0
KMCS 251845Z 14013G18KT 29/21 A2987 RMK A01 T02890209  RH  066%=      5-min Rain = 0
KMCS 251850Z 14010G17KT 29/21 A2987 RMK A01 T02900210  RH  066%=      5-min Rain = 0
KMCS 251855Z 14009G15KT 29/21 A2987 RMK A01 T02900210  RH  066%=      5-min Rain = 0
KMCS 251900Z 14012G18KT 29/21 A2987 RMK A01 T02940211  RH  065%=      5-min Rain = 0
KMCS 251905Z 14011G18KT 29/21 A2987 RMK A01 T02930210  RH  065%=      5-min Rain = 0
KMCS 251910Z 12013KT 29/21 A2987 RMK A01 T02940210  RH  064%=      5-min Rain = 0
KMCS 251915Z 15011KT 30/21 A2987 RMK A01 T02960211  RH  064%=      5-min Rain = 0
KMCS 251920Z 13011G18KT 30/21 A2987 RMK A01 T03000211  RH  063%=      5-min Rain = 0
KMCS 251925Z 14010KT 30/21 A2987 RMK A01 T02980209  RH  063%=      5-min Rain = 0
KMCS 251930Z 15009G14KT 30/21 A2987 RMK A01 T02990210  RH  062%=      5-min Rain = 0
KMCS 251935Z 14010KT 30/21 A2987 RMK A01 T03040212  RH  061%=      5-min Rain = 0
KMCS 251940Z 13010KT 30/21 A2986 RMK A01 T03020211  RH  062%=      5-min Rain = 0
KMCS 251945Z 14008KT 30/21 A2986 RMK A01 T03030209  RH  061%=      5-min Rain = 0
KMCS 251950Z 13011G17KT 31/21 A2986 RMK A01 T03060208  RH  059%=      5-min Rain = 0
KMCS 251955Z 14011G16KT 31/21 A2986 RMK A01 T03070209  RH  059%=      5-min Rain = 0
KMCS 252000Z 13011G17KT 31/21 A2985 RMK A01 T03090207  RH  058%=      5-min Rain = 0
KMCS 252005Z 15011G17KT 31/21 A2985 RMK A01 T03090206  RH  058%=      5-min Rain = 0
KMCS 252010Z 14010G16KT 31/21 A2984 RMK A01 T03100205  RH  057%=      5-min Rain = 0
KMCS 252015Z 15013G21KT 32/20 A2984 RMK A01 T03160202  RH  054%=      5-min Rain = 0
KMCS 252020Z 17013KT 32/20 A2984 RMK A01 T03180196  RH  051%=      5-min Rain = 0
KMCS 252025Z 16012KT 32/20 A2983 RMK A01 T03220197  RH  051%=      5-min Rain = 0
KMCS 252030Z 17012G17KT 32/20 A2983 RMK A01 T03230196  RH  050%=      5-min Rain = 0
KMCS 252035Z 18013G18KT 32/19 A2983 RMK A01 T03200189  RH  048%=      5-min Rain = 0
KMCS 252040Z 17012G17KT 32/20 A2983 RMK A01 T03210196  RH  050%=      5-min Rain = 0
KMCS 252045Z 16009KT 32/19 A2983 RMK A01 T03230191  RH  048%=      5-min Rain = 0
KMCS 252050Z 15010KT 33/19 A2983 RMK A01 T03250192  RH  048%=      5-min Rain = 0
KMCS 252055Z 17012G18KT 33/19 A2983 RMK A01 T03250193  RH  048%=      5-min Rain = 0
KMCS 252100Z 18010KT 33/19 A2982 RMK A01 T03260193  RH  048%=      5-min Rain = 0
KMCS 252105Z 17011G18KT 33/20 A2982 RMK A01 T03290197  RH  049%=      5-min Rain = 0
KMCS 252110Z 19011KT 32/19 A2982 RMK A01 T03240191  RH  048%=      5-min Rain = 0
KMCS 252115Z 16008G13KT 33/19 A2982 RMK A01 T03270194  RH  048%=      5-min Rain = 0
KMCS 252120Z 17011KT 33/19 A2982 RMK A01 T03290193  RH  047%=      5-min Rain = 0
KMCS 252125Z 17010KT 33/19 A2981 RMK A01 T03280193  RH  047%=      5-min Rain = 0
KMCS 252130Z 18012KT 33/19 A2981 RMK A01 T03280190  RH  046%=      5-min Rain = 0
KMCS 252135Z 17010KT 33/19 A2981 RMK A01 T03290190  RH  046%=      5-min Rain = 0
KMCS 252140Z 18010KT 33/19 A2981 RMK A01 T03310191  RH  046%=      5-min Rain = 0
KMCS 252145Z 17008G13KT 33/20 A2981 RMK A01 T03330197  RH  047%=      5-min Rain = 0
KMCS 252150Z 16012G17KT 33/19 A2981 RMK A01 T03340192  RH  046%=      5-min Rain = 0
KMCS 252155Z 17009KT 33/19 A2981 RMK A01 T03340194  RH  046%=      5-min Rain = 0
KMCS 252200Z 17010KT 33/19 A2981 RMK A01 T03320189  RH  045%=      5-min Rain = 0
KMCS 252205Z 16009KT 34/19 A298 RMK A01 T03350189  RH  045%=      5-min Rain = 0
KMCS 252210Z 17008KT 33/19 A298 RMK A01 T03340187  RH  044%=      5-min Rain = 0
KMCS 252215Z 17006KT 34/19 A298 RMK A01 T03350187  RH  044%=      5-min Rain = 0
KMCS 252220Z 16006G11KT 34/19 A298 RMK A01 T03370188  RH  044%=      5-min Rain = 0
KMCS 252225Z 17009G14KT 34/19 A298 RMK A01 T03370189  RH  044%=      5-min Rain = 0
KMCS 252230Z 18010KT 34/19 A298 RMK A01 T03360187  RH  044%=      5-min Rain = 0
KMCS 252235Z 19008KT 33/19 A298 RMK A01 T03340185  RH  044%=      5-min Rain = 0
KMCS 252240Z 18006KT 34/19 A298 RMK A01 T03360190  RH  045%=      5-min Rain = 0
KMCS 252245Z 15008KT 34/19 A298 RMK A01 T03370188  RH  044%=      5-min Rain = 0
KMCS 252250Z 16008KT 34/19 A298 RMK A01 T03380189  RH  044%=      5-min Rain = 0
KMCS 252255Z 15006KT 34/19 A2979 RMK A01 T03370189  RH  044%=      5-min Rain = 0
KMCS 252300Z 17007KT 34/19 A2979 RMK A01 T03380189  RH  044%=      5-min Rain = 0
KMCS 252305Z 17007KT 34/19 A2979 RMK A01 T03380190  RH  044%=      5-min Rain = 0
KMCS 252310Z 16009KT 34/19 A2979 RMK A01 T03370187  RH  043%=      5-min Rain = 0
KMCS 252315Z 16007KT 34/19 A2979 RMK A01 T03380188  RH  044%=      5-min Rain = 0
KMCS 252320Z 16006KT 34/19 A2979 RMK A01 T03380186  RH  043%=      5-min Rain = 0
KMCS 252325Z 16006KT 34/19 A2979 RMK A01 T03390189  RH  044%=      5-min Rain = 0
KMCS 252330Z 19006KT 34/19 A2979 RMK A01 T03370188  RH  044%=      5-min Rain = 0
KMCS 252335Z 18005KT 34/19 A2979 RMK A01 T03360191  RH  045%=      5-min Rain = 0
KMCS 252340Z 17006KT 34/19 A2979 RMK A01 T03370190  RH  044%=      5-min Rain = 0
KMCS 252345Z 16006KT 34/19 A2979 RMK A01 T03370188  RH  044%=      5-min Rain = 0
KMCS 252350Z 16006KT 34/19 A2979 RMK A01 T03360187  RH  044%=      5-min Rain = 0
KMCS 252355Z 17005KT 34/19 A2979 RMK A01 T03360186  RH  043%=      5-min Rain = 0
KMCS 260000Z 17004KT 34/19 A2979 RMK A01 T03370189  RH  044%=      5-min Rain = 0
KMCS 260005Z 15004KT 34/19 A2979 RMK A01 T03360190  RH  045%=      5-min Rain = 0
KMCS 260010Z 15004KT 33/19 A2979 RMK A01 T03340188  RH  044%=      5-min Rain = 0
KMCS 260015Z 15003KT 33/19 A2979 RMK A01 T03340191  RH  045%=      5-min Rain = 0
KMCS 260020Z 15003KT 33/19 A2979 RMK A01 T03330192  RH  046%=      5-min Rain = 0
KMCS 260025Z 13003KT 33/20 A2979 RMK A01 T03290197  RH  048%=      5-min Rain = 0
KMCS 260030Z 12003KT 33/20 A2979 RMK A01 T03260199  RH  050%=      5-min Rain = 0
KMCS 260035Z 11004KT 32/20 A2979 RMK A01 T03230200  RH  051%=      5-min Rain = 0
KMCS 260040Z 11004KT 32/20 A2979 RMK A01 T03180204  RH  054%=      5-min Rain = 0
KMCS 260045Z 10004KT 32/20 A2979 RMK A01 T03150204  RH  055%=      5-min Rain = 0
KMCS 260050Z 11004KT 31/21 A2979 RMK A01 T03120205  RH  056%=      5-min Rain = 0
KMCS 260055Z 10004KT 31/20 A2979 RMK A01 T03080204  RH  057%=      5-min Rain = 0
KMCS 260100Z 09005KT 30/20 A298 RMK A01 T03040204  RH  058%=      5-min Rain = 0
KMCS 260105Z 09005KT 30/20 A298 RMK A01 T03000204  RH  060%=      5-min Rain = 0
KMCS 260110Z 09005KT 30/20 A298 RMK A01 T02970204  RH  061%=      5-min Rain = 0
KMCS 260115Z 10005KT 29/20 A298 RMK A01 T02930203  RH  062%=      5-min Rain = 0
KMCS 260120Z 10006KT 29/20 A298 RMK A01 T02920202  RH  062%=      5-min Rain = 0
KMCS 260125Z 10006KT 29/20 A298 RMK A01 T02900201  RH  062%=      5-min Rain = 0
KMCS 260130Z 10006KT 29/20 A298 RMK A01 T02880201  RH  063%=      5-min Rain = 0
KMCS 260135Z 11006KT 29/20 A298 RMK A01 T02850200  RH  064%=      5-min Rain = 0
KMCS 260140Z 11006KT 28/20 A298 RMK A01 T02820200  RH  064%=      5-min Rain = 0
KMCS 260145Z 11007KT 28/20 A298 RMK A01 T02790200  RH  066%=      5-min Rain = 0
KMCS 260150Z 11007KT 28/20 A298 RMK A01 T02790199  RH  066%=      5-min Rain = 0
KMCS 260155Z 11007KT 28/20 A298 RMK A01 T02780198  RH  065%=      5-min Rain = 0
KMCS 260200Z 11007KT 28/20 A298 RMK A01 T02780197  RH  065%=      5-min Rain = 0
KMCS 260205Z 12007KT 28/20 A298 RMK A01 T02790197  RH  065%=      5-min Rain = 0
KMCS 260210Z 12009KT 28/20 A2981 RMK A01 T02800197  RH  064%=      5-min Rain = 0
KMCS 260215Z 12009KT 28/20 A2981 RMK A01 T02810196  RH  064%=      5-min Rain = 0
KMCS 260220Z 12008KT 28/20 A2981 RMK A01 T02770196  RH  065%=      5-min Rain = 0
KMCS 260225Z 12008KT 28/20 A2981 RMK A01 T02750196  RH  066%=      5-min Rain = 0
KMCS 260230Z 12009KT 28/19 A2981 RMK A01 T02750194  RH  065%=      5-min Rain = 0
KMCS 260235Z 12009KT 28/19 A2981 RMK A01 T02750193  RH  065%=      5-min Rain = 0
KMCS 260240Z 12009KT 27/19 A2981 RMK A01 T02740192  RH  064%=      5-min Rain = 0
KMCS 260245Z 12008KT 27/19 A2982 RMK A01 T02730192  RH  065%=      5-min Rain = 0
KMCS 260250Z 12009KT 27/19 A2982 RMK A01 T02720191  RH  065%=      5-min Rain = 0
KMCS 260255Z 12009KT 27/19 A2982 RMK A01 T02710191  RH  065%=      5-min Rain = 0
KMCS 260300Z 12009KT 27/19 A2982 RMK A01 T02700191  RH  066%=      5-min Rain = 0
KMCS 260305Z 12009KT 27/19 A2982 RMK A01 T02680190  RH  066%=      5-min Rain = 0
KMCS 260310Z 12009KT 27/19 A2982 RMK A01 T02680190  RH  066%=      5-min Rain = 0
KMCS 260315Z 12009KT 27/19 A2982 RMK A01 T02680189  RH  066%=      5-min Rain = 0
KMCS 260320Z 12010KT 27/19 A2982 RMK A01 T02670188  RH  066%=      5-min Rain = 0
KMCS 260325Z 12009KT 27/19 A2982 RMK A01 T02670188  RH  065%=      5-min Rain = 0
KMCS 260330Z 12009KT 27/19 A2982 RMK A01 T02650187  RH  066%=      5-min Rain = 0
KMCS 260335Z 12009KT 27/19 A2983 RMK A01 T02650187  RH  066%=      5-min Rain = 0
KMCS 260340Z 13010KT 26/19 A2983 RMK A01 T02640187  RH  066%=      5-min Rain = 0
KMCS 260345Z 13010KT 26/19 A2983 RMK A01 T02630187  RH  066%=      5-min Rain = 0
KMCS 260350Z 13010KT 26/19 A2982 RMK A01 T02630187  RH  066%=      5-min Rain = 0
KMCS 260355Z 13010KT 26/19 A2982 RMK A01 T02620187  RH  067%=      5-min Rain = 0
KMCS 260400Z 13010KT 26/19 A2982 RMK A01 T02620187  RH  067%=      5-min Rain = 0
KMCS 260405Z 13010KT 26/19 A2982 RMK A01 T02600188  RH  068%=      5-min Rain = 0
KMCS 260410Z 13009KT 26/19 A2982 RMK A01 T02580188  RH  069%=      5-min Rain = 0
KMCS 260415Z 13009KT 26/19 A2982 RMK A01 T02570188  RH  070%=      5-min Rain = 0
KMCS 260420Z 13009KT 26/19 A2982 RMK A01 T02560189  RH  070%=      5-min Rain = 0
KMCS 260425Z 13010KT 26/19 A2982 RMK A01 T02550189  RH  071%=      5-min Rain = 0
KMCS 260430Z 13010KT 26/19 A2982 RMK A01 T02550189  RH  071%=      5-min Rain = 0
KMCS 260435Z 13009KT 25/19 A2982 RMK A01 T02530190  RH  072%=      5-min Rain = 0
KMCS 260440Z 13010KT 25/19 A2982 RMK A01 T02520190  RH  072%=      5-min Rain = 0
KMCS 260445Z 13009KT 25/19 A2982 RMK A01 T02510190  RH  073%=      5-min Rain = 0
KMCS 260450Z 13009KT 25/19 A2982 RMK A01 T02500191  RH  073%=      5-min Rain = 0
KMCS 260455Z 13009KT 25/19 A2982 RMK A01 T02490191  RH  074%=      5-min Rain = 0

Page generated in 0.0093 seconds.